createdAt,value
2017-09-25T00:01:02.388Z,22.37
2017-09-25T00:03:31.481Z,27.07
2017-09-25T00:06:01.590Z,25.53
2017-09-25T00:08:30.673Z,25.47
2017-09-25T00:10:59.722Z,21.83
2017-09-25T00:13:28.792Z,32.47
2017-09-25T00:15:57.880Z,23.80
2017-09-25T00:18:26.973Z,25.70
2017-09-25T00:20:56.786Z,21.60
2017-09-25T00:23:25.857Z,21.53
2017-09-25T00:25:55.683Z,27.33
2017-09-25T00:28:24.748Z,27.47
2017-09-25T00:30:54.599Z,34.57
2017-09-25T00:33:23.954Z,33.27
2017-09-25T00:35:53.025Z,48.33
2017-09-25T00:38:22.092Z,45.20
2017-09-25T00:40:51.166Z,50.20
2017-09-25T00:43:20.498Z,39.07
2017-09-25T00:45:50.350Z,42.10
2017-09-25T00:48:19.433Z,40.37
2017-09-25T00:50:49.234Z,38.67
2017-09-25T00:56:13.500Z,43.80
2017-09-25T00:58:42.559Z,36.50
2017-09-25T01:01:14.413Z,38.70
2017-09-25T01:03:56.957Z,41.20
2017-09-25T01:06:27.471Z,38.00
2017-09-25T01:08:57.571Z,35.87
2017-09-25T01:11:26.652Z,41.23
2017-09-25T01:13:55.735Z,40.07
2017-09-25T01:16:24.806Z,41.03
2017-09-25T01:18:53.875Z,34.97
2017-09-25T01:21:23.696Z,33.73
2017-09-25T01:23:53.531Z,36.57
2017-09-25T01:26:22.608Z,37.27
2017-09-25T01:28:52.424Z,35.80
2017-09-25T01:31:21.504Z,40.07
2017-09-25T01:33:50.560Z,33.93
2017-09-25T01:36:19.630Z,35.07
2017-09-25T01:38:48.716Z,35.77
2017-09-25T01:41:17.812Z,34.80
2017-09-25T01:43:46.862Z,37.13
2017-09-25T01:46:15.927Z,41.23
2017-09-25T01:48:44.983Z,40.77
2017-09-25T01:51:14.059Z,37.57
2017-09-25T01:53:43.880Z,29.40
2017-09-25T01:56:13.717Z,43.67
2017-09-25T01:58:42.772Z,49.20
2017-09-25T02:01:12.609Z,96.73
2017-09-25T02:03:41.686Z,44.87
2017-09-25T02:06:10.719Z,58.20
2017-09-25T02:08:39.813Z,40.57
2017-09-25T02:11:08.908Z,34.17
2017-09-25T02:13:37.986Z,37.90
2017-09-25T02:16:07.056Z,38.13
2017-09-25T02:18:36.158Z,32.13
2017-09-25T02:21:05.232Z,45.53
2017-09-25T02:23:34.305Z,83.07
2017-09-25T02:26:03.367Z,53.67
2017-09-25T02:28:32.597Z,37.17
2017-09-25T02:31:01.656Z,49.17
2017-09-25T02:33:31.485Z,67.73
2017-09-25T02:36:00.580Z,85.67
2017-09-25T02:38:29.652Z,34.97
2017-09-25T02:40:59.494Z,36.10
2017-09-25T02:43:28.597Z,36.03
2017-09-25T02:45:57.703Z,33.33
2017-09-25T02:48:26.768Z,90.63
2017-09-25T02:50:55.858Z,68.87
2017-09-25T02:53:24.920Z,38.10
2017-09-25T02:55:54.031Z,33.90
2017-09-25T02:58:23.086Z,32.30
2017-09-25T03:00:52.161Z,32.10
2017-09-25T03:03:21.245Z,74.30
2017-09-25T03:05:50.324Z,29.70
2017-09-25T03:08:20.157Z,73.97
2017-09-25T03:10:49.216Z,38.10
2017-09-25T03:13:19.051Z,49.57
2017-09-25T03:15:48.114Z,99.00
2017-09-25T03:18:17.206Z,35.80
2017-09-25T03:20:46.582Z,33.80
2017-09-25T03:23:15.638Z,35.03
2017-09-25T03:25:44.936Z,29.53
2017-09-25T03:28:13.996Z,31.40
2017-09-25T03:30:43.108Z,30.63
2017-09-25T03:33:12.160Z,60.13
2017-09-25T03:35:41.221Z,57.93
2017-09-25T03:38:10.320Z,80.83
2017-09-25T03:40:39.371Z,59.07
2017-09-25T03:43:08.451Z,80.10
2017-09-25T03:45:37.520Z,28.57
2017-09-25T03:48:06.616Z,29.07
2017-09-25T03:50:35.896Z,39.03
2017-09-25T03:53:05.744Z,28.23
2017-09-25T03:55:35.124Z,34.20
2017-09-25T03:58:04.180Z,27.80
2017-09-25T04:00:33.341Z,34.83
2017-09-25T04:03:02.435Z,41.70
2017-09-25T04:05:31.508Z,31.57
2017-09-25T04:08:00.584Z,94.83
2017-09-25T04:10:29.665Z,77.73
2017-09-25T04:12:59.503Z,35.83
2017-09-25T04:15:28.570Z,86.67
2017-09-25T04:17:58.424Z,115.30
2017-09-25T04:20:27.470Z,35.43
2017-09-25T04:22:56.536Z,34.87
2017-09-25T04:25:25.614Z,51.17
2017-09-25T04:27:54.686Z,44.90
2017-09-25T04:30:23.760Z,48.70
2017-09-25T04:32:53.579Z,35.07
2017-09-25T04:35:23.445Z,35.50
2017-09-25T04:37:52.525Z,34.87
2017-09-25T04:40:21.645Z,22.40
2017-09-25T04:42:51.478Z,53.27
2017-09-25T04:45:20.564Z,47.13
2017-09-25T04:47:49.652Z,33.27
2017-09-25T04:50:19.572Z,52.33
2017-09-25T04:52:48.659Z,38.57
2017-09-25T04:55:17.728Z,70.67
2017-09-25T04:57:46.790Z,70.13
2017-09-25T05:00:16.641Z,48.33
2017-09-25T05:02:45.717Z,34.33
2017-09-25T05:05:14.972Z,33.13
2017-09-25T05:07:44.046Z,34.47
2017-09-25T05:10:13.132Z,37.73
2017-09-25T05:12:42.191Z,62.47
2017-09-25T05:15:12.049Z,111.23
2017-09-25T05:17:41.961Z,67.93
2017-09-25T05:20:11.114Z,92.87
2017-09-25T05:22:41.182Z,124.77
2017-09-25T05:25:10.254Z,193.03
2017-09-25T05:27:39.292Z,69.13
2017-09-25T05:30:08.376Z,94.17
2017-09-25T05:32:37.467Z,135.13
2017-09-25T05:35:06.559Z,76.47
2017-09-25T05:37:35.898Z,47.93
2017-09-25T05:40:04.987Z,56.27
2017-09-25T05:42:34.045Z,33.60
2017-09-25T05:45:03.111Z,29.37
2017-09-25T05:47:32.547Z,32.23
2017-09-25T05:50:01.629Z,35.63
2017-09-25T05:52:30.682Z,30.30
2017-09-25T05:55:00.516Z,51.73
2017-09-25T05:57:29.584Z,31.83
2017-09-25T05:59:58.676Z,48.10
2017-09-25T06:02:27.805Z,31.87
2017-09-25T06:04:57.645Z,46.77
2017-09-25T06:07:26.801Z,40.37
2017-09-25T06:09:56.645Z,23.03
2017-09-25T06:12:26.102Z,37.87
2017-09-25T06:14:55.303Z,38.93
2017-09-25T06:17:25.149Z,32.17
2017-09-25T06:19:54.231Z,34.83
2017-09-25T06:22:23.310Z,38.80
2017-09-25T06:24:52.375Z,30.63
2017-09-25T06:27:21.466Z,26.77
2017-09-25T06:29:50.513Z,31.03
2017-09-25T06:32:19.607Z,36.00
2017-09-25T06:34:49.448Z,29.13
2017-09-25T06:37:18.542Z,30.40
2017-09-25T06:39:47.604Z,24.53
2017-09-25T06:42:17.443Z,23.03
2017-09-25T06:44:46.504Z,21.00
2017-09-25T06:47:16.345Z,23.00
2017-09-25T06:49:45.682Z,21.00
2017-09-25T06:52:14.738Z,22.07
2017-09-25T06:54:43.853Z,26.70
2017-09-25T06:57:12.911Z,21.53
2017-09-25T06:59:41.983Z,22.27
2017-09-25T07:02:11.059Z,20.53
2017-09-25T07:04:40.133Z,19.30
2017-09-25T07:07:09.196Z,20.73
2017-09-25T07:09:39.049Z,18.70
2017-09-25T07:12:08.125Z,21.63
2017-09-25T07:14:37.181Z,18.50
2017-09-25T07:17:06.250Z,18.30
2017-09-25T07:19:35.336Z,19.40
2017-09-25T07:22:04.480Z,20.30
2017-09-25T07:24:35.003Z,19.93
2017-09-25T07:27:06.978Z,21.23
2017-09-25T07:29:36.041Z,18.23
2017-09-25T07:32:05.151Z,16.63
2017-09-25T07:34:40.042Z,18.50
2017-09-25T07:37:09.177Z,17.23
2017-09-25T07:39:38.253Z,16.60
2017-09-25T07:42:07.336Z,17.33
2017-09-25T07:44:36.408Z,14.90
2017-09-25T07:47:05.471Z,16.50
2017-09-25T07:49:37.272Z,15.30
2017-09-25T07:52:07.380Z,17.00
2017-09-25T07:54:36.455Z,14.40
2017-09-25T07:57:06.279Z,12.57
2017-09-25T07:59:35.361Z,13.53
2017-09-25T08:02:05.192Z,13.77
2017-09-25T08:04:34.366Z,13.00
2017-09-25T08:07:05.745Z,11.80
2017-09-25T08:09:35.881Z,11.73
2017-09-25T08:12:04.943Z,11.93
2017-09-25T08:14:34.021Z,13.50
2017-09-25T08:17:03.858Z,18.03
2017-09-25T08:19:32.968Z,14.90
2017-09-25T08:22:02.012Z,15.90
2017-09-25T08:24:31.109Z,13.10
2017-09-25T08:27:00.148Z,15.73
2017-09-25T08:29:29.231Z,18.10
2017-09-25T08:31:58.310Z,15.20
2017-09-25T08:34:28.223Z,16.83
2017-09-25T08:36:57.308Z,15.20
2017-09-25T08:39:26.381Z,17.83
2017-09-25T08:41:55.468Z,17.03
2017-09-25T08:44:24.532Z,10.73
2017-09-25T08:46:53.605Z,11.40
2017-09-25T08:49:23.436Z,9.73
2017-09-25T08:51:52.508Z,11.30
2017-09-25T08:54:22.693Z,10.00
2017-09-25T08:56:51.740Z,11.43
2017-09-25T08:59:20.825Z,12.47
2017-09-25T09:01:49.922Z,13.07
2017-09-25T09:04:19.763Z,13.77
2017-09-25T09:06:48.849Z,12.43
2017-09-25T09:09:17.910Z,13.93
2017-09-25T09:11:46.988Z,13.17
2017-09-25T09:14:16.059Z,12.03
2017-09-25T09:16:45.121Z,13.20
2017-09-25T09:19:14.197Z,16.80
2017-09-25T09:21:43.395Z,19.77
2017-09-25T09:24:12.495Z,14.27
2017-09-25T09:26:41.566Z,15.03
2017-09-25T09:29:10.905Z,13.57
2017-09-25T09:31:41.074Z,14.17
2017-09-25T09:34:10.165Z,13.70
2017-09-25T09:36:39.215Z,14.33
2017-09-25T09:39:08.338Z,15.90
2017-09-25T09:41:37.381Z,13.80
2017-09-25T09:44:06.457Z,12.10
2017-09-25T09:46:35.514Z,12.90
2017-09-25T09:49:04.592Z,13.33
2017-09-25T09:51:34.416Z,13.17
2017-09-25T09:54:03.477Z,13.10
2017-09-25T09:56:32.591Z,14.93
2017-09-25T09:59:02.448Z,14.90
2017-09-25T10:01:31.497Z,12.97
2017-09-25T10:04:01.340Z,12.00
2017-09-25T10:06:30.534Z,11.67
2017-09-25T10:09:00.449Z,13.07
2017-09-25T10:11:30.264Z,11.90
2017-09-25T10:13:59.340Z,12.00
2017-09-25T10:16:28.429Z,11.27
2017-09-25T10:18:58.264Z,11.80
2017-09-25T10:21:28.077Z,11.63
2017-09-25T10:23:57.154Z,12.70
2017-09-25T10:26:27.015Z,14.30
2017-09-25T10:28:56.325Z,11.47
2017-09-25T10:31:25.391Z,10.53
2017-09-25T10:33:54.480Z,10.67
2017-09-25T10:36:23.585Z,15.57
2017-09-25T10:38:52.663Z,11.60
2017-09-25T10:41:21.856Z,12.33
2017-09-25T10:43:50.945Z,13.00
2017-09-25T10:46:20.762Z,14.60
2017-09-25T10:48:50.596Z,14.67
2017-09-25T10:51:19.665Z,17.90
2017-09-25T10:53:49.501Z,20.90
2017-09-25T10:56:18.579Z,17.63
2017-09-25T10:58:47.937Z,17.40
2017-09-25T11:01:17.003Z,16.30
2017-09-25T11:03:46.068Z,18.23
2017-09-25T11:06:15.901Z,17.60
2017-09-25T11:08:44.980Z,18.80
2017-09-25T11:11:14.056Z,18.30
2017-09-25T11:13:43.109Z,18.20
2017-09-25T11:16:12.194Z,17.20
2017-09-25T11:18:41.286Z,19.03
2017-09-25T11:21:10.323Z,18.63
2017-09-25T11:23:39.395Z,16.77
2017-09-25T11:26:08.471Z,18.37
2017-09-25T11:28:37.551Z,19.17
2017-09-25T11:31:06.640Z,17.63
2017-09-25T11:33:36.452Z,19.00
2017-09-25T11:36:05.576Z,16.40
2017-09-25T11:38:34.627Z,22.20
2017-09-25T11:41:04.586Z,20.83
2017-09-25T11:43:33.647Z,16.33
2017-09-25T11:46:03.496Z,16.67
2017-09-25T11:48:32.556Z,21.20
2017-09-25T11:51:02.719Z,22.70
2017-09-25T11:53:33.345Z,19.90
2017-09-25T11:56:02.398Z,20.13
2017-09-25T11:58:32.259Z,21.70
2017-09-25T12:01:02.379Z,20.97
2017-09-25T12:03:31.457Z,20.90
2017-09-25T12:06:00.524Z,21.90
2017-09-25T12:08:30.365Z,22.87
2017-09-25T12:10:59.447Z,19.23
2017-09-25T12:13:28.489Z,22.47
2017-09-25T12:15:57.560Z,22.57
2017-09-25T12:18:26.619Z,23.00
2017-09-25T12:20:56.485Z,23.90
2017-09-25T12:23:25.579Z,22.30
2017-09-25T12:25:54.644Z,25.70
2017-09-25T12:28:23.727Z,22.47
2017-09-25T12:30:52.783Z,23.97
2017-09-25T12:33:22.579Z,21.87
2017-09-25T12:35:52.595Z,24.07
2017-09-25T12:38:21.691Z,22.00
2017-09-25T12:40:50.827Z,20.70
2017-09-25T12:43:20.657Z,19.93
2017-09-25T12:45:50.626Z,18.80
2017-09-25T12:48:19.678Z,17.37
2017-09-25T12:50:48.760Z,19.87
2017-09-25T12:53:18.596Z,22.97
2017-09-25T12:55:47.936Z,20.03
2017-09-25T12:58:16.991Z,21.33
2017-09-25T13:00:46.827Z,20.73
2017-09-25T13:03:15.924Z,19.20
2017-09-25T13:05:45.012Z,24.47
2017-09-25T13:08:14.075Z,19.27
2017-09-25T13:10:43.184Z,24.27
2017-09-25T13:13:12.239Z,20.87
2017-09-25T13:15:42.118Z,21.10
2017-09-25T13:18:11.227Z,24.10
2017-09-25T13:20:40.332Z,18.67
2017-09-25T13:23:09.399Z,18.40
2017-09-25T13:25:38.456Z,20.60
2017-09-25T13:28:07.543Z,19.17
2017-09-25T13:30:37.723Z,22.57
2017-09-25T13:33:06.789Z,22.20
2017-09-25T13:35:39.059Z,20.93
2017-09-25T13:38:08.116Z,20.60
2017-09-25T13:40:37.963Z,21.30
2017-09-25T13:43:07.028Z,21.90
2017-09-25T13:45:36.099Z,20.67
2017-09-25T13:48:05.167Z,22.37
2017-09-25T13:50:34.237Z,24.63
2017-09-25T13:53:03.448Z,21.30
2017-09-25T13:55:32.494Z,22.47
2017-09-25T13:58:01.569Z,20.57
2017-09-25T14:03:04.935Z,21.20
2017-09-25T14:05:33.994Z,22.03
2017-09-25T14:08:03.057Z,23.80
2017-09-25T14:10:32.130Z,25.10
2017-09-25T14:13:01.194Z,23.23
2017-09-25T14:15:30.333Z,20.23
2017-09-25T14:17:59.400Z,25.33
2017-09-25T14:20:29.225Z,23.40
2017-09-25T14:22:58.331Z,26.27
2017-09-25T14:25:28.232Z,23.67
2017-09-25T14:27:57.304Z,25.73
2017-09-25T14:30:27.151Z,25.40
2017-09-25T14:32:56.258Z,28.63
2017-09-25T14:35:25.298Z,28.87
2017-09-25T14:37:54.516Z,29.60
2017-09-25T14:40:24.488Z,31.60
2017-09-25T14:42:53.561Z,30.47
2017-09-25T14:45:22.612Z,32.20
2017-09-25T14:47:51.745Z,31.00
2017-09-25T14:50:20.788Z,29.90
2017-09-25T14:52:49.945Z,28.10
2017-09-25T14:55:19.023Z,28.83
2017-09-25T14:57:48.102Z,29.67
2017-09-25T15:00:17.921Z,30.33
2017-09-25T15:02:47.003Z,29.70
2017-09-25T15:05:16.862Z,29.30
2017-09-25T15:07:45.934Z,29.13
2017-09-25T15:10:15.040Z,31.27
2017-09-25T15:12:44.107Z,29.50
2017-09-25T15:15:14.156Z,29.00
2017-09-25T15:17:43.212Z,28.60
2017-09-25T15:20:13.062Z,30.53
2017-09-25T15:22:42.238Z,32.17
2017-09-25T15:25:12.066Z,27.20
2017-09-25T15:27:41.150Z,29.43
2017-09-25T15:30:10.198Z,30.53
2017-09-25T15:32:39.276Z,30.50
2017-09-25T15:35:08.356Z,30.30
2017-09-25T15:37:37.424Z,32.10
2017-09-25T15:40:07.347Z,29.87
2017-09-25T15:42:37.208Z,30.43
2017-09-25T15:45:06.308Z,30.73
2017-09-25T15:47:36.214Z,28.97
2017-09-25T15:50:05.267Z,29.37
2017-09-25T15:52:34.352Z,28.20
2017-09-25T15:55:03.454Z,26.73
2017-09-25T15:57:33.273Z,28.40
2017-09-25T16:00:02.349Z,31.63
2017-09-25T16:02:32.190Z,27.83
2017-09-25T16:05:01.266Z,29.60
2017-09-25T16:07:31.123Z,27.00
2017-09-25T16:10:00.178Z,31.03
2017-09-25T16:12:30.027Z,26.73
2017-09-25T16:14:59.088Z,29.27
2017-09-25T16:17:28.148Z,31.60
2017-09-25T16:19:57.228Z,29.70
2017-09-25T16:22:26.323Z,28.43
2017-09-25T16:24:55.385Z,29.40
2017-09-25T16:27:24.476Z,32.00
2017-09-25T16:29:53.645Z,28.40
2017-09-25T16:32:23.472Z,27.10
2017-09-25T16:34:52.544Z,29.20
2017-09-25T16:37:22.387Z,29.73
2017-09-25T16:39:51.471Z,34.53
2017-09-25T16:42:21.654Z,31.20
2017-09-25T16:44:50.754Z,28.40
2017-09-25T16:47:19.856Z,29.70
2017-09-25T16:49:48.918Z,31.23
2017-09-25T16:52:17.990Z,32.83
2017-09-25T16:54:47.061Z,31.77
2017-09-25T16:57:16.164Z,33.77
2017-09-25T16:59:46.031Z,34.73
2017-09-25T17:02:15.095Z,33.17
2017-09-25T17:04:44.168Z,34.53
2017-09-25T17:07:14.019Z,38.70
2017-09-25T17:09:44.059Z,33.77
2017-09-25T17:12:13.122Z,36.47
2017-09-25T17:14:42.267Z,37.43
2017-09-25T17:17:11.461Z,34.07
2017-09-25T17:19:42.309Z,33.10
2017-09-25T17:22:12.333Z,36.10
2017-09-25T17:24:42.431Z,37.20
2017-09-25T17:27:11.837Z,37.90
2017-09-25T17:29:42.997Z,32.63
2017-09-25T17:32:12.483Z,34.40
2017-09-25T17:34:41.942Z,38.53
2017-09-25T17:37:11.367Z,32.33
2017-09-25T17:39:40.916Z,34.57
2017-09-25T17:42:11.807Z,33.90
2017-09-25T17:44:40.994Z,35.70
2017-09-25T17:47:10.825Z,34.10
2017-09-25T17:49:40.153Z,34.83
2017-09-25T17:52:09.367Z,38.37
2017-09-25T17:54:39.220Z,38.40
2017-09-25T17:57:08.334Z,41.00
2017-09-25T17:59:37.439Z,37.83
2017-09-25T18:02:06.752Z,38.00
2017-09-25T18:04:35.847Z,35.20
2017-09-25T18:07:04.928Z,40.27
2017-09-25T18:09:33.971Z,38.27
2017-09-25T18:12:03.817Z,41.60
2017-09-25T18:14:32.901Z,40.73
2017-09-25T18:17:02.108Z,37.27
2017-09-25T18:19:31.466Z,37.57
2017-09-25T18:22:00.529Z,43.40
2017-09-25T18:24:29.695Z,37.97
2017-09-25T18:26:58.835Z,43.87
2017-09-25T18:29:27.898Z,55.13
2017-09-25T18:31:56.976Z,78.20
2017-09-25T18:34:26.455Z,85.17
2017-09-25T18:36:56.356Z,68.90
2017-09-25T18:39:25.442Z,56.93
2017-09-25T18:41:54.518Z,57.10
2017-09-25T18:44:23.581Z,53.47
2017-09-25T18:46:53.429Z,52.70
2017-09-25T18:49:22.496Z,47.30
2017-09-25T18:51:51.556Z,53.63
2017-09-25T18:54:20.665Z,49.23
2017-09-25T18:56:51.143Z,49.50
2017-09-25T18:59:20.220Z,45.63
2017-09-25T19:01:49.302Z,43.50
2017-09-25T19:04:18.389Z,45.50
2017-09-25T19:06:47.477Z,39.63
2017-09-25T19:09:17.317Z,40.27
2017-09-25T19:11:46.395Z,45.13
2017-09-25T19:14:15.463Z,38.40
2017-09-25T19:16:44.614Z,40.00
2017-09-25T19:19:13.735Z,41.97
2017-09-25T19:21:42.802Z,37.73
2017-09-25T19:24:11.890Z,43.17
2017-09-25T19:26:40.948Z,43.03
2017-09-25T19:29:10.815Z,41.50
2017-09-25T19:31:39.966Z,39.13
2017-09-25T19:34:09.811Z,45.00
2017-09-25T19:36:38.899Z,47.87
2017-09-25T19:39:07.979Z,49.40
2017-09-25T19:41:37.824Z,53.43
2017-09-25T19:44:06.918Z,49.13
2017-09-25T19:46:36.029Z,57.43
2017-09-25T19:49:06.420Z,48.33
2017-09-25T19:51:35.526Z,43.33
2017-09-25T19:54:05.018Z,42.80
2017-09-25T19:59:38.798Z,44.17
2017-09-25T20:02:07.864Z,48.70
2017-09-25T20:04:36.922Z,46.87
2017-09-25T20:07:06.820Z,42.40
2017-09-25T20:09:35.900Z,45.50
2017-09-25T20:12:04.977Z,45.10
2017-09-25T20:14:35.417Z,45.40
2017-09-25T20:17:05.826Z,42.77
2017-09-25T20:19:34.901Z,40.17
2017-09-25T20:22:04.057Z,38.40
2017-09-25T20:24:33.100Z,37.00
2017-09-25T20:27:02.191Z,45.27
2017-09-25T20:29:31.273Z,40.70
2017-09-25T20:32:01.090Z,46.90
2017-09-25T20:34:30.144Z,46.57
